Time;durP1;ratioP1;P1;durP2;ratioP2;P2;SDS_P1;SDS_P2;PMS_P1;PMS_P2;Temp;Humidity;BMP_temperature;BMP_pressure;BME280_temperature;BME280_humidity;BME280_pressure;Samples;Min_cycle;Max_cycle;Signal;HPM_P1;HPM_P2
2021/09/09 00:00:17;;;;;;;49.83;30.95;;;19.70;99.90;;;;;;5050628;28;20021;-60
2021/09/09 00:02:43;;;;;;;49.53;30.02;;;19.70;99.90;;;;;;5051798;28;20032;-60
2021/09/09 00:05:09;;;;;;;47.80;30.25;;;19.60;99.90;;;;;;5050853;28;20494;-59
2021/09/09 00:07:35;;;;;;;50.85;31.77;;;19.60;99.90;;;;;;5032015;28;20476;-62
2021/09/09 00:10:01;;;;;;;48.88;31.05;;;19.60;99.90;;;;;;5030918;28;20029;-59
2021/09/09 00:12:27;;;;;;;49.50;30.70;;;19.50;99.90;;;;;;5031667;28;20060;-59
2021/09/09 00:14:53;;;;;;;47.30;32.35;;;19.50;99.90;;;;;;5030544;28;20028;-60
2021/09/09 00:17:18;;;;;;;51.03;32.83;;;19.40;99.90;;;;;;5031438;28;20144;-60
2021/09/09 00:19:44;;;;;;;49.97;31.77;;;19.40;99.90;;;;;;5030663;28;20398;-60
2021/09/09 00:22:10;;;;;;;57.40;34.03;;;19.40;99.90;;;;;;5031156;28;20029;-62
2021/09/09 00:24:36;;;;;;;50.42;32.15;;;19.40;99.90;;;;;;5031376;28;20060;-60
2021/09/09 00:27:02;;;;;;;51.20;33.30;;;19.30;99.90;;;;;;5051257;28;20094;-59
2021/09/09 00:29:27;;;;;;;56.15;32.90;;;19.30;99.90;;;;;;5050353;28;20060;-58
2021/09/09 00:31:53;;;;;;;50.40;33.30;;;19.20;99.90;;;;;;5051215;28;20029;-60
2021/09/09 00:34:19;;;;;;;52.88;34.13;;;19.10;99.90;;;;;;5050487;28;20110;-59
2021/09/09 00:36:44;;;;;;;55.55;35.65;;;19.00;99.90;;;;;;5051076;28;20025;-59
2021/09/09 00:39:10;;;;;;;55.17;34.80;;;18.90;99.90;;;;;;5050302;28;20603;-62
2021/09/09 00:41:36;;;;;;;52.25;32.92;;;18.90;99.90;;;;;;5050813;28;20437;-59
2021/09/09 00:44:02;;;;;;;53.95;34.55;;;18.80;99.90;;;;;;5051015;28;20040;-59
2021/09/09 00:46:29;;;;;;;52.05;34.50;;;18.80;99.90;;;;;;5050690;28;20045;-61
2021/09/09 00:48:54;;;;;;;54.35;35.70;;;18.80;99.90;;;;;;5036301;28;20029;-58
2021/09/09 00:51:20;;;;;;;50.13;33.83;;;18.80;99.90;;;;;;5051666;28;20039;-58
2021/09/09 00:53:46;;;;;;;61.30;36.20;;;18.70;99.90;;;;;;5056976;28;20062;-60
2021/09/09 00:56:12;;;;;;;54.95;34.90;;;18.70;99.90;;;;;;5057214;28;20037;-59
2021/09/09 00:58:42;;;;;;;52.75;34.70;;;18.70;99.90;;;;;;5057392;28;20488;-58
2021/09/09 01:01:09;;;;;;;54.80;35.33;;;18.70;99.90;;;;;;5056753;28;20074;-60
2021/09/09 01:03:35;;;;;;;52.15;35.58;;;18.70;99.90;;;;;;5057341;28;20037;-58
2021/09/09 01:06:01;;;;;;;56.47;35.28;;;18.70;99.90;;;;;;5042620;28;20060;-58
2021/09/09 01:08:26;;;;;;;54.20;36.17;;;18.70;99.90;;;;;;5044616;28;20068;-59
2021/09/09 01:10:52;;;;;;;57.42;35.75;;;18.70;99.90;;;;;;5054193;28;20039;-59
2021/09/09 01:13:18;;;;;;;51.63;36.03;;;18.70;99.90;;;;;;5057407;28;20483;-58
2021/09/09 01:15:44;;;;;;;51.70;35.05;;;18.70;99.90;;;;;;5056475;28;20078;-60
2021/09/09 01:18:11;;;;;;;49.63;35.45;;;18.70;99.90;;;;;;5057854;28;20387;-59
2021/09/09 01:20:38;;;;;;;58.78;37.25;;;18.60;99.90;;;;;;5056449;28;20021;-59
2021/09/09 01:23:05;;;;;;;54.28;36.53;;;18.60;99.90;;;;;;5045976;28;20032;-58
2021/09/09 01:25:31;;;;;;;56.50;37.03;;;18.50;99.90;;;;;;5055658;28;20041;-60
2021/09/09 01:27:56;;;;;;;59.85;37.70;;;18.50;99.90;;;;;;5043187;28;20038;-58
2021/09/09 01:30:22;;;;;;;53.97;37.15;;;18.40;99.90;;;;;;5049796;28;20396;-59
2021/09/09 01:32:48;;;;;;;55.33;38.10;;;18.40;99.90;;;;;;5050066;28;20036;-58
2021/09/09 01:35:14;;;;;;;53.25;36.90;;;18.30;99.90;;;;;;5056151;28;20110;-59
2021/09/09 01:37:41;;;;;;;56.78;37.85;;;18.30;99.90;;;;;;5057473;28;20392;-59
2021/09/09 01:40:07;;;;;;;61.70;38.10;;;18.30;99.90;;;;;;5056080;28;20033;-59
2021/09/09 01:42:33;;;;;;;52.55;36.60;;;18.30;99.90;;;;;;5057542;28;20040;-58
2021/09/09 01:44:58;;;;;;;54.85;37.10;;;18.30;99.90;;;;;;5056318;28;20025;-59
2021/09/09 01:47:24;;;;;;;54.10;36.15;;;18.30;99.90;;;;;;5057209;28;20033;-60
2021/09/09 01:49:51;;;;;;;54.85;35.47;;;18.30;99.90;;;;;;5056435;28;20386;-60
2021/09/09 01:52:17;;;;;;;47.15;34.92;;;18.30;99.90;;;;;;5056830;28;20104;-60
2021/09/09 01:54:42;;;;;;;54.17;35.95;;;18.30;99.90;;;;;;5045624;28;20448;-59
2021/09/09 01:57:08;;;;;;;55.72;36.75;;;18.20;99.90;;;;;;5053901;28;20048;-61
2021/09/09 01:59:34;;;;;;;53.95;36.00;;;18.20;99.90;;;;;;5056307;28;20035;-58
2021/09/09 02:01:59;;;;;;;53.70;36.90;;;18.20;99.90;;;;;;5056625;28;20120;-61
2021/09/09 02:04:28;;;;;;;50.17;36.30;;;18.20;99.90;;;;;;5052753;28;20017;-59
2021/09/09 02:06:54;;;;;;;55.65;37.42;;;18.20;99.90;;;;;;5053439;28;20115;-59
2021/09/09 02:09:20;;;;;;;57.50;36.55;;;18.20;99.90;;;;;;5052995;28;20120;-59
2021/09/09 02:11:45;;;;;;;54.65;36.42;;;18.20;99.90;;;;;;5053633;28;20017;-58
2021/09/09 02:14:11;;;;;;;52.38;36.70;;;18.20;99.90;;;;;;5053479;28;20029;-60
2021/09/09 02:16:37;;;;;;;47.88;34.45;;;18.20;99.90;;;;;;5052597;28;20056;-60
2021/09/09 02:19:02;;;;;;;55.35;35.05;;;18.10;99.90;;;;;;5052476;28;20463;-59
2021/09/09 02:21:28;;;;;;;51.92;34.60;;;18.10;99.90;;;;;;5035360;28;20063;-58
2021/09/09 02:23:54;;;;;;;52.03;34.80;;;18.10;99.90;;;;;;5046524;28;20505;-59
2021/09/09 02:26:20;;;;;;;52.60;35.03;;;18.00;99.90;;;;;;5052251;28;20036;-61
2021/09/09 02:28:46;;;;;;;50.17;34.85;;;18.00;99.90;;;;;;5053330;28;20049;-59
2021/09/09 02:31:12;;;;;;;49.85;34.05;;;18.00;99.90;;;;;;5039337;28;20044;-59
2021/09/09 02:33:38;;;;;;;52.50;35.03;;;18.00;99.90;;;;;;5052266;28;20113;-58
2021/09/09 02:36:04;;;;;;;53.78;36.60;;;18.00;99.90;;;;;;5052404;28;20036;-59
2021/09/09 02:38:29;;;;;;;65.43;41.88;;;18.00;99.90;;;;;;5053027;28;20440;-59
2021/09/09 02:40:55;;;;;;;60.53;38.58;;;18.10;99.90;;;;;;5052308;28;20056;-61
2021/09/09 02:43:21;;;;;;;54.90;38.00;;;18.10;99.90;;;;;;5039399;28;20431;-61
2021/09/09 02:45:46;;;;;;;55.05;37.50;;;18.10;99.90;;;;;;5052400;28;20061;-59
2021/09/09 02:48:12;;;;;;;53.17;36.10;;;18.10;99.90;;;;;;5053183;28;20021;-58
2021/09/09 02:50:38;;;;;;;55.60;36.67;;;18.10;99.90;;;;;;5051815;28;20079;-60
2021/09/09 02:53:04;;;;;;;55.60;37.67;;;18.10;99.90;;;;;;5053367;28;20097;-61
2021/09/09 02:55:29;;;;;;;55.95;36.28;;;18.20;99.90;;;;;;5050952;28;20033;-63
2021/09/09 02:57:55;;;;;;;51.00;36.40;;;18.10;99.90;;;;;;5053310;28;20075;-60
2021/09/09 03:00:21;;;;;;;51.03;37.08;;;18.20;99.90;;;;;;5051674;28;20037;-59
2021/09/09 03:02:47;;;;;;;76.13;46.97;;;18.20;99.90;;;;;;5053117;28;20480;-59
2021/09/09 03:05:13;;;;;;;61.28;43.13;;;18.20;99.90;;;;;;5051926;28;20032;-59
2021/09/09 03:07:38;;;;;;;70.78;44.90;;;18.20;99.90;;;;;;5052317;28;20047;-60
2021/09/09 03:10:06;;;;;;;74.65;46.88;;;18.20;99.90;;;;;;5051981;28;20025;-59
2021/09/09 03:12:32;;;;;;;70.82;44.10;;;18.20;99.90;;;;;;5052785;28;20021;-60
2021/09/09 03:14:58;;;;;;;82.28;49.22;;;18.20;99.90;;;;;;5051563;28;20040;-61
2021/09/09 03:17:24;;;;;;;69.65;44.75;;;18.30;99.90;;;;;;5050636;28;20360;-59
2021/09/09 03:19:50;;;;;;;71.07;45.22;;;18.30;99.90;;;;;;5039714;28;20150;-59
2021/09/09 03:22:15;;;;;;;68.60;43.97;;;18.30;99.90;;;;;;5040993;28;20030;-59
2021/09/09 03:24:41;;;;;;;74.63;47.58;;;18.30;99.90;;;;;;5051739;28;20570;-59
2021/09/09 03:27:07;;;;;;;75.68;48.13;;;18.30;99.90;;;;;;5051626;28;20401;-61
2021/09/09 03:29:32;;;;;;;77.70;46.70;;;18.30;99.90;;;;;;5037649;28;20053;-59
2021/09/09 03:31:58;;;;;;;75.10;47.35;;;18.30;99.90;;;;;;5045032;28;20025;-59
2021/09/09 03:34:24;;;;;;;76.22;47.92;;;18.30;99.90;;;;;;5032097;28;20104;-61
2021/09/09 03:36:49;;;;;;;73.75;46.05;;;18.20;99.90;;;;;;5023255;28;20111;-60
2021/09/09 03:39:15;;;;;;;77.13;47.90;;;18.20;99.90;;;;;;5063251;28;20561;-60
2021/09/09 03:41:41;;;;;;;79.13;50.30;;;18.20;99.90;;;;;;5040062;28;20029;-59
2021/09/09 03:44:07;;;;;;;79.50;49.13;;;18.30;99.90;;;;;;5045980;28;20039;-60
2021/09/09 03:46:32;;;;;;;83.13;49.90;;;18.30;99.90;;;;;;5050891;28;20431;-60
2021/09/09 03:48:58;;;;;;;81.72;51.40;;;18.30;99.90;;;;;;5051591;28;20044;-60
2021/09/09 03:51:24;;;;;;;83.85;50.05;;;18.30;99.90;;;;;;5051422;28;20071;-60
2021/09/09 03:53:50;;;;;;;81.82;51.70;;;18.10;99.90;;;;;;5051595;28;20108;-59
2021/09/09 03:56:15;;;;;;;78.07;50.78;;;18.10;99.90;;;;;;5050880;28;20394;-60
2021/09/09 03:58:41;;;;;;;84.03;51.53;;;18.10;99.90;;;;;;5051296;28;20028;-60
2021/09/09 04:01:06;;;;;;;79.85;49.05;;;18.10;99.90;;;;;;5037497;28;20430;-60
2021/09/09 04:03:32;;;;;;;73.68;48.90;;;18.10;99.90;;;;;;5051955;28;20449;-58
2021/09/09 04:05:58;;;;;;;74.97;49.17;;;18.10;99.90;;;;;;5050269;28;20059;-60
2021/09/09 04:08:23;;;;;;;79.72;48.53;;;18.00;99.90;;;;;;5051798;28;20052;-60
2021/09/09 04:10:49;;;;;;;77.90;50.05;;;18.00;99.90;;;;;;5050372;28;20032;-60
2021/09/09 04:13:15;;;;;;;78.07;49.67;;;18.10;99.90;;;;;;5051474;28;20037;-61
2021/09/09 04:15:40;;;;;;;84.82;51.33;;;18.10;99.90;;;;;;5050735;28;20025;-61
2021/09/09 04:18:06;;;;;;;94.10;54.92;;;18.20;99.90;;;;;;5051219;28;20100;-59
2021/09/09 04:20:32;;;;;;;102.15;57.95;;;18.10;99.90;;;;;;5050710;28;20029;-60
2021/09/09 04:22:58;;;;;;;101.50;57.90;;;18.20;99.90;;;;;;5037903;28;20379;-59
2021/09/09 04:25:23;;;;;;;100.32;57.90;;;18.20;99.90;;;;;;5050720;28;20055;-60
2021/09/09 04:27:49;;;;;;;115.47;63.67;;;18.20;99.90;;;;;;5036197;28;20087;-60
2021/09/09 04:30:14;;;;;;;129.20;66.63;;;18.20;99.90;;;;;;5050159;28;20128;-60
2021/09/09 04:32:40;;;;;;;134.52;68.97;;;18.20;99.90;;;;;;5050903;28;20056;-59
2021/09/09 04:35:06;;;;;;;146.45;73.18;;;18.20;99.90;;;;;;5051111;28;20048;-62
2021/09/09 04:37:35;;;;;;;152.95;73.28;;;18.30;99.90;;;;;;5038966;28;20529;-60
2021/09/09 04:40:00;;;;;;;152.52;74.03;;;18.30;99.90;;;;;;5049138;28;20117;-60
2021/09/09 04:42:26;;;;;;;174.02;77.47;;;18.40;99.90;;;;;;5050429;28;20510;-58
2021/09/09 04:44:52;;;;;;;168.20;80.22;;;18.40;99.90;;;;;;5050933;28;20044;-59
2021/09/09 04:47:17;;;;;;;172.55;80.70;;;18.30;99.90;;;;;;5050076;28;20037;-59
2021/09/09 04:49:43;;;;;;;176.10;79.25;;;18.20;99.90;;;;;;5051065;28;20040;-59
2021/09/09 04:52:09;;;;;;;176.02;81.80;;;18.20;99.90;;;;;;5035974;28;20021;-59
2021/09/09 04:54:34;;;;;;;175.95;80.32;;;18.10;99.90;;;;;;5050845;28;20382;-60
2021/09/09 04:57:00;;;;;;;184.73;80.75;;;18.10;99.90;;;;;;5049959;28;20033;-59
2021/09/09 04:59:26;;;;;;;172.55;80.30;;;18.00;99.90;;;;;;5050832;28;20037;-60
2021/09/09 05:01:51;;;;;;;170.77;78.20;;;18.00;99.90;;;;;;5049291;28;20388;-60
2021/09/09 05:04:19;;;;;;;164.95;79.75;;;18.00;99.90;;;;;;5037560;28;20125;-61
2021/09/09 05:06:45;;;;;;;161.35;76.70;;;18.00;99.90;;;;;;5049995;28;20530;-60
2021/09/09 05:09:11;;;;;;;154.20;77.07;;;18.10;99.90;;;;;;5050908;28;20107;-59
2021/09/09 05:11:36;;;;;;;153.73;73.53;;;18.00;99.90;;;;;;5049811;28;20407;-59
2021/09/09 05:14:02;;;;;;;155.40;75.53;;;18.10;99.90;;;;;;5050652;28;20021;-58
2021/09/09 05:16:28;;;;;;;151.10;74.63;;;18.00;99.90;;;;;;5050036;28;20070;-59
2021/09/09 05:18:53;;;;;;;149.25;75.15;;;18.00;99.90;;;;;;5050589;28;20037;-60
2021/09/09 05:21:19;;;;;;;150.85;76.07;;;18.00;99.90;;;;;;5046762;28;20048;-60
2021/09/09 05:23:45;;;;;;;152.40;76.78;;;18.00;99.90;;;;;;5043905;28;20112;-59
2021/09/09 05:26:10;;;;;;;148.95;74.68;;;18.10;99.90;;;;;;5049595;28;20044;-58
2021/09/09 05:28:36;;;;;;;148.38;75.05;;;18.00;99.90;;;;;;5050276;28;20053;-59
2021/09/09 05:31:02;;;;;;;143.25;72.10;;;18.10;99.90;;;;;;5035858;28;20038;-59
2021/09/09 05:33:28;;;;;;;144.13;74.80;;;18.10;99.90;;;;;;5050385;28;20060;-60
2021/09/09 05:35:53;;;;;;;145.35;73.07;;;18.00;99.90;;;;;;5035760;28;20152;-59
2021/09/09 05:38:19;;;;;;;140.00;72.78;;;17.90;99.90;;;;;;5046370;28;20045;-60
2021/09/09 05:40:44;;;;;;;148.05;73.10;;;17.80;99.90;;;;;;5047193;28;20044;-59
2021/09/09 05:43:10;;;;;;;151.23;72.57;;;17.90;99.90;;;;;;5069316;28;20017;-62
2021/09/09 05:45:36;;;;;;;129.50;69.90;;;17.80;99.90;;;;;;5053875;28;20029;-62
2021/09/09 05:48:03;;;;;;;129.10;69.35;;;17.90;99.90;;;;;;5053452;28;20079;-61
2021/09/09 05:50:29;;;;;;;127.78;69.07;;;17.80;99.90;;;;;;5052698;28;20032;-59
2021/09/09 05:52:55;;;;;;;131.35;69.30;;;17.80;99.90;;;;;;5053144;28;20029;-61
2021/09/09 05:55:20;;;;;;;124.18;67.95;;;17.80;99.90;;;;;;5053776;28;20066;-60
2021/09/09 05:57:47;;;;;;;121.65;64.95;;;17.90;99.90;;;;;;5053303;28;20104;-60
2021/09/09 06:00:13;;;;;;;126.32;67.97;;;17.80;99.90;;;;;;5053515;28;20025;-59
2021/09/09 06:02:44;;;;;;;119.25;65.07;;;17.90;99.90;;;;;;5052252;28;20032;-60
2021/09/09 06:05:12;;;;;;;113.15;64.20;;;18.00;99.90;;;;;;5039763;28;20025;-61
2021/09/09 06:07:38;;;;;;;111.65;62.95;;;17.90;99.90;;;;;;5052749;28;20041;-59
2021/09/09 06:10:04;;;;;;;110.53;60.08;;;17.90;99.90;;;;;;5041383;28;20079;-61
2021/09/09 06:12:30;;;;;;;112.93;59.80;;;17.80;99.90;;;;;;5051255;28;20467;-60
2021/09/09 06:14:56;;;;;;;105.65;58.92;;;17.70;99.90;;;;;;5053586;28;20032;-59
2021/09/09 06:17:22;;;;;;;97.20;57.05;;;17.70;99.90;;;;;;5052619;28;20033;-60
2021/09/09 06:19:48;;;;;;;103.85;56.75;;;17.80;99.90;;;;;;5053473;28;20156;-60
2021/09/09 06:22:14;;;;;;;93.05;53.03;;;17.90;99.90;;;;;;5042231;28;20439;-60
2021/09/09 06:24:39;;;;;;;84.05;50.22;;;17.80;99.90;;;;;;5053566;28;20031;-60
2021/09/09 06:27:06;;;;;;;80.45;48.78;;;17.80;99.90;;;;;;5052552;28;20037;-59
2021/09/09 06:29:32;;;;;;;84.57;50.63;;;17.80;99.90;;;;;;5052767;28;20048;-61
2021/09/09 06:31:57;;;;;;;87.70;51.28;;;17.80;99.90;;;;;;5052320;28;20040;-61
2021/09/09 06:34:23;;;;;;;90.72;53.72;;;17.80;99.90;;;;;;5053174;28;20029;-64
2021/09/09 06:36:49;;;;;;;86.00;51.22;;;17.90;99.90;;;;;;5052498;28;20035;-59
2021/09/09 06:39:15;;;;;;;92.90;52.80;;;17.90;99.90;;;;;;5052934;28;20045;-60
2021/09/09 06:41:44;;;;;;;86.13;50.38;;;17.90;99.90;;;;;;5052414;28;20067;-59
2021/09/09 06:44:14;;;;;;;85.85;50.08;;;17.80;99.90;;;;;;5040005;28;20079;-59
2021/09/09 06:46:40;;;;;;;87.40;51.45;;;17.80;99.90;;;;;;5052952;28;20403;-59
2021/09/09 06:49:07;;;;;;;85.85;47.83;;;17.80;99.90;;;;;;5052606;28;20029;-59
2021/09/09 06:51:34;;;;;;;85.50;48.67;;;17.80;99.90;;;;;;5037797;28;20041;-60
2021/09/09 06:53:59;;;;;;;78.70;47.05;;;17.80;99.90;;;;;;5052779;28;20505;-60
2021/09/09 06:56:25;;;;;;;83.38;48.63;;;17.80;99.90;;;;;;5052663;28;20033;-61
2021/09/09 06:58:52;;;;;;;76.47;47.55;;;17.80;99.90;;;;;;5052527;28;20025;-60
2021/09/09 07:01:17;;;;;;;80.97;46.45;;;17.80;99.90;;;;;;5041685;28;20048;-59
2021/09/09 07:03:43;;;;;;;75.28;44.72;;;17.70;99.90;;;;;;5048709;28;20029;-60
2021/09/09 07:06:09;;;;;;;74.93;44.22;;;17.80;99.90;;;;;;5052600;28;20119;-60
2021/09/09 07:08:35;;;;;;;77.50;44.42;;;17.80;99.90;;;;;;5051498;28;20060;-60
2021/09/09 07:11:01;;;;;;;79.90;45.42;;;17.70;99.90;;;;;;5052458;28;20098;-60
2021/09/09 07:13:29;;;;;;;76.47;44.38;;;17.80;99.90;;;;;;5051827;28;20467;-60
2021/09/09 07:15:59;;;;;;;70.28;43.70;;;17.80;99.90;;;;;;5051836;28;20036;-58
2021/09/09 07:18:26;;;;;;;81.38;44.75;;;17.90;99.90;;;;;;5051616;28;20098;-59
2021/09/09 07:20:53;;;;;;;77.82;45.35;;;17.90;99.90;;;;;;5051942;28;20031;-61
2021/09/09 07:23:19;;;;;;;76.38;44.97;;;18.00;99.90;;;;;;5041600;28;20094;-61
2021/09/09 07:25:44;;;;;;;72.88;42.15;;;18.00;99.90;;;;;;5052214;28;20522;-58
2021/09/09 07:28:10;;;;;;;77.30;41.08;;;18.10;99.90;;;;;;5051087;28;20045;-60
2021/09/09 07:30:36;;;;;;;68.15;38.45;;;18.00;99.90;;;;;;5052175;28;20098;-59
2021/09/09 07:33:03;;;;;;;69.72;37.70;;;18.10;99.90;;;;;;5051018;28;20052;-60
2021/09/09 07:35:29;;;;;;;63.25;34.58;;;18.10;99.90;;;;;;5052138;28;20064;-60
2021/09/09 07:37:55;;;;;;;64.90;36.13;;;18.10;99.90;;;;;;5050878;28;20033;-59
2021/09/09 07:40:20;;;;;;;67.38;37.30;;;18.00;99.90;;;;;;5052064;28;20031;-59
2021/09/09 07:42:46;;;;;;;67.10;36.20;;;18.00;99.90;;;;;;5048046;28;20388;-60
2021/09/09 07:45:12;;;;;;;69.43;38.63;;;18.00;99.90;;;;;;5051841;28;20093;-61
2021/09/09 07:47:37;;;;;;;67.57;34.83;;;18.00;99.90;;;;;;5050873;28;20036;-59
2021/09/09 07:50:06;;;;;;;68.32;35.47;;;18.00;99.90;;;;;;5049829;28;20041;-59
2021/09/09 07:52:32;;;;;;;72.32;37.15;;;18.00;99.90;;;;;;5039312;28;20032;-59
2021/09/09 07:54:58;;;;;;;73.85;36.10;;;18.10;99.90;;;;;;5051265;28;20029;-57
2021/09/09 07:57:23;;;;;;;81.85;38.78;;;18.30;99.90;;;;;;5050992;28;20039;-59
2021/09/09 07:59:49;;;;;;;82.10;38.20;;;18.30;99.90;;;;;;5051537;28;20036;-60
2021/09/09 08:02:15;;;;;;;73.70;39.53;;;18.30;99.90;;;;;;5049541;28;20491;-59
2021/09/09 08:04:42;;;;;;;74.68;37.88;;;18.20;99.90;;;;;;5050378;28;20092;-60
2021/09/09 08:07:07;;;;;;;74.55;38.33;;;18.20;99.90;;;;;;5050612;28;20056;-59
2021/09/09 08:09:33;;;;;;;74.07;36.65;;;18.20;99.90;;;;;;5051333;28;20527;-59
2021/09/09 08:12:01;;;;;;;71.88;36.13;;;18.30;99.90;;;;;;5050636;28;20446;-58
2021/09/09 08:14:27;;;;;;;71.03;36.45;;;18.20;99.90;;;;;;5051004;28;20086;-60
2021/09/09 08:16:53;;;;;;;78.43;36.35;;;18.20;99.90;;;;;;5038341;28;20091;-59
2021/09/09 08:19:19;;;;;;;72.05;36.28;;;18.30;99.90;;;;;;5049625;28;20430;-60
2021/09/09 08:21:44;;;;;;;84.25;36.40;;;18.30;99.90;;;;;;5044031;28;20112;-60
2021/09/09 08:24:10;;;;;;;78.28;37.35;;;18.40;99.90;;;;;;5047871;28;20525;-59
2021/09/09 08:26:36;;;;;;;86.78;37.97;;;18.50;99.90;;;;;;5037710;28;20112;-59
2021/09/09 08:29:02;;;;;;;82.20;37.33;;;18.60;99.90;;;;;;5030318;28;20156;-58
2021/09/09 08:31:28;;;;;;;79.25;36.58;;;18.70;99.90;;;;;;5031258;28;20029;-59
2021/09/09 08:33:55;;;;;;;81.38;37.58;;;18.80;99.90;;;;;;5030274;28;20039;-59
2021/09/09 08:36:21;;;;;;;84.85;39.03;;;18.80;99.90;;;;;;5031056;28;20025;-61
2021/09/09 08:38:51;;;;;;;80.47;38.78;;;18.90;99.90;;;;;;5030731;28;20029;-59
2021/09/09 08:41:16;;;;;;;65.18;32.60;;;18.90;99.90;;;;;;5030789;28;20384;-60
2021/09/09 08:43:43;;;;;;;58.67;30.58;;;18.80;99.90;;;;;;5030224;28;20037;-59
2021/09/09 08:46:11;;;;;;;66.78;31.80;;;18.90;99.90;;;;;;5042452;28;20029;-60
2021/09/09 08:48:42;;;;;;;66.53;32.85;;;18.80;99.90;;;;;;5049857;28;20541;-59
2021/09/09 08:51:07;;;;;;;69.05;33.47;;;18.80;99.90;;;;;;5051066;28;20032;-60
2021/09/09 08:53:34;;;;;;;95.10;45.33;;;18.80;99.90;;;;;;5049824;28;20821;-60
2021/09/09 08:55:59;;;;;;;70.70;33.83;;;18.80;99.90;;;;;;5042222;28;20041;-61
2021/09/09 08:58:25;;;;;;;68.13;34.10;;;18.70;99.90;;;;;;5044475;28;20047;-59
2021/09/09 09:01:12;;;;;;;61.58;32.05;;;18.80;99.90;;;;;;5050571;28;20442;-60
2021/09/09 09:03:51;;;;;;;64.85;30.80;;;18.80;99.90;;;;;;5049703;28;20086;-59
2021/09/09 09:06:25;;;;;;;60.35;30.25;;;18.90;99.90;;;;;;5050741;28;20450;-60
2021/09/09 09:08:56;;;;;;;57.85;29.58;;;18.90;99.90;;;;;;5049925;28;20037;-59
2021/09/09 09:11:34;;;;;;;64.65;29.85;;;19.00;99.90;;;;;;5051134;28;20467;-59
2021/09/09 09:14:00;;;;;;;62.83;28.77;;;19.20;99.90;;;;;;5052363;28;20037;-61
2021/09/09 09:16:28;;;;;;;53.78;26.63;;;19.30;99.90;;;;;;5045996;28;20029;-61
2021/09/09 09:18:59;;;;;;;56.97;28.23;;;19.30;99.90;;;;;;5048940;28;20147;-60
2021/09/09 09:21:25;;;;;;;60.15;28.10;;;19.40;99.90;;;;;;5050872;28;20025;-60
2021/09/09 09:23:54;;;;;;;54.28;25.75;;;19.50;99.90;;;;;;5047793;28;20029;-59
2021/09/09 09:26:20;;;;;;;55.25;25.30;;;19.60;99.90;;;;;;5054756;28;20037;-61
2021/09/09 09:28:49;;;;;;;53.00;26.38;;;19.60;99.90;;;;;;5053371;28;20072;-60
2021/09/09 09:31:22;;;;;;;53.25;26.10;;;19.80;99.90;;;;;;5054245;28;20032;-60
2021/09/09 09:33:50;;;;;;;46.65;23.75;;;19.80;99.90;;;;;;5053624;28;20090;-60
2021/09/09 09:36:29;;;;;;;50.72;25.10;;;19.90;99.90;;;;;;5042557;28;20049;-60
2021/09/09 09:39:05;;;;;;;48.85;23.65;;;20.00;99.90;;;;;;5053327;28;20040;-60
2021/09/09 09:41:31;;;;;;;49.08;24.13;;;20.20;99.90;;;;;;5040355;28;20104;-59
2021/09/09 09:44:00;;;;;;;44.45;22.95;;;20.30;99.90;;;;;;5053936;28;20124;-58
2021/09/09 09:46:28;;;;;;;42.78;22.08;;;20.40;99.90;;;;;;5054043;28;20414;-61
2021/09/09 09:48:54;;;;;;;43.83;22.00;;;20.60;99.90;;;;;;5053401;28;20449;-59
2021/09/09 09:51:41;;;;;;;48.97;23.55;;;20.70;99.90;;;;;;5054309;28;20121;-60
2021/09/09 09:54:13;;;;;;;45.90;22.13;;;20.70;99.90;;;;;;5053583;28;20021;-61
2021/09/09 09:56:40;;;;;;;43.30;22.05;;;20.70;99.90;;;;;;5054390;28;20045;-60
2021/09/09 09:59:06;;;;;;;42.10;20.10;;;20.90;99.90;;;;;;5053051;28;20447;-60
2021/09/09 10:01:33;;;;;;;38.08;19.90;;;21.00;99.90;;;;;;5053889;28;20060;-60
2021/09/09 10:04:04;;;;;;;42.67;20.60;;;21.20;99.90;;;;;;5038582;28;20064;-60
2021/09/09 10:06:34;;;;;;;35.17;17.83;;;21.50;99.90;;;;;;5042942;28;20040;-61
2021/09/09 10:09:01;;;;;;;37.20;19.50;;;21.80;99.90;;;;;;5047114;28;20025;-60
2021/09/09 10:11:27;;;;;;;35.30;19.60;;;22.10;99.90;;;;;;5043866;28;20029;-60
2021/09/09 10:13:55;;;;;;;35.90;19.13;;;22.20;99.90;;;;;;5052624;28;20108;-61
2021/09/09 10:16:23;;;;;;;38.28;19.27;;;22.50;99.90;;;;;;5053704;28;20025;-59
2021/09/09 10:18:49;;;;;;;38.13;20.50;;;22.80;99.90;;;;;;5052741;28;20024;-62
2021/09/09 10:21:38;;;;;;;39.67;18.98;;;22.80;99.90;;;;;;5050741;28;20722;-61
2021/09/09 10:24:13;;;;;;;32.88;18.58;;;22.90;99.90;;;;;;5047836;28;20033;-60
2021/09/09 10:26:39;;;;;;;;;;;23.00;99.90;;;;;;5054070;28;20040;-61
2021/09/09 10:29:08;;;;;;;24.80;14.30;;;23.20;99.90;;;;;;5052360;28;19947;-62
2021/09/09 10:31:40;;;;;;;19.92;11.75;;;23.20;99.90;;;;;;5053150;28;20439;-60
2021/09/09 10:34:08;;;;;;;20.98;11.85;;;23.30;99.90;;;;;;5052502;28;20098;-60
2021/09/09 10:36:45;;;;;;;20.42;11.18;;;23.40;99.90;;;;;;5053338;28;20072;-60
2021/09/09 10:39:41;;;;;;;25.85;12.23;;;23.50;99.90;;;;;;5052340;28;20068;-62
2021/09/09 10:42:38;;;;;;;26.25;13.90;;;23.50;99.90;;;;;;5053296;28;20037;-60
2021/09/09 10:45:06;;;;;;;24.92;13.75;;;23.60;99.90;;;;;;5053060;28;20150;-61
2021/09/09 10:47:51;;;;;;;23.77;12.70;;;23.60;99.90;;;;;;5053224;28;20033;-62
2021/09/09 10:50:23;;;;;;;20.17;11.38;;;23.50;99.90;;;;;;5052372;28;20432;-59
2021/09/09 10:52:58;;;;;;;17.55;10.70;;;23.50;99.90;;;;;;5052150;28;20112;-60
2021/09/09 10:55:26;;;;;;;26.05;10.43;;;23.60;99.90;;;;;;5052223;28;20080;-61
2021/09/09 10:58:20;;;;;;;14.75;8.57;;;23.80;99.90;;;;;;5051171;28;20033;-62
2021/09/09 11:00:51;;;;;;;17.70;8.43;;;24.10;99.90;;;;;;5052426;28;20033;-63
2021/09/09 11:03:36;;;;;;;15.57;8.77;;;24.30;99.90;;;;;;5052033;28;20060;-60
2021/09/09 11:06:07;;;;;;;;;;;24.40;99.90;;;;;;5085386;28;20139;-61
2021/09/09 11:08:33;;;;;;;14.85;9.40;;;24.50;99.90;;;;;;5051948;28;19917;-60
2021/09/09 11:10:59;;;;;;;16.23;8.85;;;24.40;99.90;;;;;;5052677;28;20165;-60
2021/09/09 11:13:26;;;;;;;16.08;9.57;;;24.40;99.90;;;;;;5051762;28;20028;-61
2021/09/09 11:15:52;;;;;;;14.93;9.93;;;24.30;99.90;;;;;;5052204;28;20100;-61
2021/09/09 11:18:27;;;;;;;17.40;9.75;;;24.30;99.90;;;;;;5041559;28;20025;-60
2021/09/09 11:21:06;;;;;;;20.13;10.50;;;24.20;99.90;;;;;;5049794;28;20493;-63
2021/09/09 11:23:34;;;;;;;19.42;11.05;;;24.20;99.90;;;;;;5034715;28;20033;-62
2021/09/09 11:26:10;;;;;;;18.40;9.85;;;24.30;99.90;;;;;;5052141;28;20035;-62
2021/09/09 11:28:36;;;;;;;17.05;8.95;;;24.50;99.90;;;;;;5040266;28;20125;-61
2021/09/09 11:31:10;;;;;;;20.70;10.88;;;24.60;99.90;;;;;;5049217;28;20099;-61
2021/09/09 11:34:04;;;;;;;20.23;8.50;;;24.60;99.90;;;;;;5047740;28;20029;-63
2021/09/09 11:36:33;;;;;;;15.07;7.95;;;24.90;99.90;;;;;;5024258;28;20025;-62
2021/09/09 11:39:06;;;;;;;14.30;7.95;;;24.90;99.90;;;;;;5051088;28;20033;-61
2021/09/09 11:41:33;;;;;;;12.07;7.95;;;24.80;99.90;;;;;;5051765;28;20059;-61
2021/09/09 11:44:01;;;;;;;14.73;7.47;;;24.90;99.90;;;;;;5050781;28;20090;-61
2021/09/09 11:46:34;;;;;;;16.63;8.18;;;24.80;99.90;;;;;;5051507;28;20037;-62
2021/09/09 11:49:02;;;;;;;11.88;7.80;;;24.60;99.90;;;;;;5050778;28;20029;-62
2021/09/09 11:51:34;;;;;;;15.07;7.55;;;24.70;99.90;;;;;;5052378;28;20033;-62
2021/09/09 11:54:01;;;;;;;15.00;7.88;;;24.60;99.90;;;;;;5051473;28;20064;-60
2021/09/09 11:56:27;;;;;;;17.70;9.07;;;24.70;99.90;;;;;;5051818;28;20091;-62
2021/09/09 11:58:53;;;;;;;12.50;7.70;;;24.70;99.90;;;;;;5036000;28;20033;-59
2021/09/09 12:01:19;;;;;;;21.05;7.90;;;24.70;99.90;;;;;;5051596;28;20029;-60
2021/09/09 12:03:45;;;;;;;9.40;6.82;;;24.80;99.90;;;;;;5050733;28;20033;-59
2021/09/09 12:06:12;;;;;;;15.25;7.78;;;24.80;99.90;;;;;;5051785;28;20029;-60
2021/09/09 12:08:39;;;;;;;13.77;7.15;;;24.70;99.90;;;;;;5050945;28;20041;-60
2021/09/09 12:11:07;;;;;;;12.57;6.60;;;24.80;99.90;;;;;;5044748;28;20040;-61
2021/09/09 12:13:33;;;;;;;14.18;6.40;;;24.80;99.90;;;;;;5044083;28;20036;-60
2021/09/09 12:16:17;;;;;;;11.43;6.30;;;24.80;99.90;;;;;;5050762;28;20037;-60
2021/09/09 12:18:44;;;;;;;12.40;5.97;;;24.80;99.90;;;;;;5050863;28;20036;-60
2021/09/09 12:21:14;;;;;;;11.23;6.22;;;25.00;99.90;;;;;;5049457;28;20025;-62
2021/09/09 12:23:59;;;;;;;10.02;5.70;;;25.10;99.90;;;;;;5043403;28;20045;-62
2021/09/09 12:26:25;;;;;;;10.30;5.55;;;25.10;99.90;;;;;;5038053;28;20098;-62
2021/09/09 12:28:51;;;;;;;9.90;4.07;;;25.00;99.90;;;;;;5049088;28;20057;-63